Terminal Aerodrome Forecast
Issued by NWS Wichita, KS

Home | Current Version | Previous Version | Text Only | Print | Product List | Glossary Off
Versions: 1 2 3 4 5 6 7 8 9 10 11 12 13 14 15 16 17 18 19 20 21 22 23 24 25 26 27 28

000
FTUS43 KICT 202035 AAA
TAFICT
TAF AMD
KICT 202035Z 2021/2118 35016G23KT P6SM OVC018
      TEMPO 2022/2024 SCT018 OVC070
     FM210000 36011KT P6SM OVC080
     FM210700 02012KT P6SM BKN090=

USA.gov is the U.S. government's official web portal to all federal, state and local government web resources and services.